Time;durP1;ratioP1;P1;durP2;ratioP2;P2;SDS_P1;SDS_P2;PMS_P1;PMS_P2;Temp;Humidity;BMP_temperature;BMP_pressure;BME280_temperature;BME280_humidity;BME280_pressure;Samples;Min_cycle;Max_cycle;Signal;HPM_P1;HPM_P2
2021/12/01 00:00:52;;;;;;;8.40;4.75;;;7.60;96.10;;;;;;5114559;27;20047;-51
2021/12/01 00:03:20;;;;;;;6.70;4.07;;;7.60;96.10;;;;;;5084454;28;20450;-49
2021/12/01 00:05:49;;;;;;;7.97;4.38;;;7.60;96.20;;;;;;5101276;28;20481;-50
2021/12/01 00:08:18;;;;;;;8.30;5.50;;;7.60;96.20;;;;;;5101231;28;20390;-48
2021/12/01 00:10:46;;;;;;;9.30;4.85;;;7.60;96.00;;;;;;5093930;28;20038;-52
2021/12/01 00:13:17;;;;;;;7.15;4.15;;;7.60;96.00;;;;;;5103697;28;20055;-51
2021/12/01 00:15:47;;;;;;;5.55;3.45;;;7.60;96.10;;;;;;5113431;28;20035;-51
2021/12/01 00:18:16;;;;;;;7.30;4.25;;;7.60;96.10;;;;;;5093997;28;20030;-52
2021/12/01 00:20:45;;;;;;;7.47;5.32;;;7.60;96.10;;;;;;5077759;28;20040;-48
2021/12/01 00:23:13;;;;;;;7.07;5.20;;;7.50;96.10;;;;;;5107936;28;20085;-50
2021/12/01 00:25:42;;;;;;;5.20;3.33;;;7.50;96.10;;;;;;5107516;28;20097;-51
2021/12/01 00:28:10;;;;;;;7.30;3.42;;;7.50;96.10;;;;;;5109816;28;20054;-49
2021/12/01 00:30:40;;;;;;;6.72;3.78;;;7.50;96.30;;;;;;5111812;28;20035;-50
2021/12/01 00:33:13;;;;;;;6.68;4.47;;;7.50;96.30;;;;;;5113728;28;20049;-49
2021/12/01 00:35:41;;;;;;;6.53;4.25;;;7.50;96.20;;;;;;5101132;28;20030;-49
2021/12/01 00:38:09;;;;;;;4.55;3.53;;;7.50;96.20;;;;;;5094498;28;20028;-51
2021/12/01 00:40:37;;;;;;;6.43;3.22;;;7.40;96.10;;;;;;5111457;28;20028;-50
2021/12/01 00:43:04;;;;;;;7.40;4.65;;;7.40;96.30;;;;;;5105700;28;20040;-50
2021/12/01 00:45:33;;;;;;;5.95;3.80;;;7.40;96.30;;;;;;5079668;28;20043;-52
2021/12/01 00:48:00;;;;;;;8.10;3.97;;;7.40;96.30;;;;;;5101664;28;20048;-49
2021/12/01 00:50:32;;;;;;;6.40;3.92;;;7.40;96.40;;;;;;5082133;28;20085;-49
2021/12/01 00:53:03;;;;;;;6.00;3.60;;;7.30;96.40;;;;;;5093224;28;20041;-50
2021/12/01 00:55:32;;;;;;;4.78;3.00;;;7.40;96.40;;;;;;5084418;28;20033;-50
2021/12/01 00:58:00;;;;;;;5.07;3.83;;;7.40;96.20;;;;;;5081649;28;20130;-50
2021/12/01 01:00:29;;;;;;;11.70;5.80;;;7.40;96.10;;;;;;5094708;28;20438;-50
2021/12/01 01:02:58;;;;;;;5.40;3.78;;;7.40;96.10;;;;;;5101023;28;20346;-50
2021/12/01 01:05:26;;;;;;;7.10;3.75;;;7.40;96.20;;;;;;5083612;28;20043;-49
2021/12/01 01:07:56;;;;;;;9.98;4.43;;;7.40;96.20;;;;;;5089682;28;20079;-48
2021/12/01 01:18:47;;;;;;;5.50;3.70;;;7.50;96.20;;;;;;5080526;28;20040;-51
2021/12/01 01:21:16;;;;;;;6.38;3.78;;;7.50;96.00;;;;;;5084323;28;20052;-51
2021/12/01 01:23:44;;;;;;;5.65;3.92;;;7.50;96.00;;;;;;5076640;28;20043;-50
2021/12/01 01:26:17;;;;;;;4.85;3.15;;;7.50;95.90;;;;;;5074018;28;20119;-49
2021/12/01 01:28:45;;;;;;;6.97;4.00;;;7.50;96.00;;;;;;5099187;28;20059;-50
2021/12/01 01:31:13;;;;;;;5.35;3.35;;;7.60;95.90;;;;;;5076069;28;20032;-51
2021/12/01 01:33:41;;;;;;;6.18;3.47;;;7.50;95.90;;;;;;5116382;28;20389;-51
2021/12/01 01:36:09;;;;;;;9.55;3.65;;;7.60;95.90;;;;;;5110424;28;20553;-49
2021/12/01 01:38:37;;;;;;;6.10;4.45;;;7.50;96.10;;;;;;5102118;28;20426;-49
2021/12/01 01:41:08;;;;;;;5.32;3.40;;;7.50;96.10;;;;;;5104714;28;20101;-51
2021/12/01 01:43:36;;;;;;;9.43;4.65;;;7.50;96.10;;;;;;5090268;28;20161;-51
2021/12/01 01:46:05;;;;;;;7.72;5.75;;;7.50;96.10;;;;;;5113238;28;20043;-51
2021/12/01 01:48:44;;;;;;;9.52;5.10;;;7.50;96.30;;;;;;5107181;27;20055;-49
2021/12/01 01:51:12;;;;;;;8.50;5.97;;;7.50;96.30;;;;;;5090179;28;20062;-52
2021/12/01 01:53:40;;;;;;;15.38;9.68;;;7.50;96.40;;;;;;5106433;28;20393;-50
2021/12/01 01:56:08;;;;;;;9.85;5.80;;;7.50;96.20;;;;;;5114426;28;20042;-50
2021/12/01 01:58:36;;;;;;;6.00;4.13;;;7.50;96.20;;;;;;5093130;28;20111;-49
2021/12/01 02:01:41;;;;;;;5.30;3.67;;;7.50;96.20;;;;;;5108141;28;20035;-49
2021/12/01 02:04:09;;;;;;;6.72;3.40;;;7.40;96.40;;;;;;5114231;28;20051;-50
2021/12/01 02:06:37;;;;;;;5.68;3.42;;;7.40;96.40;;;;;;5113233;28;20050;-52
2021/12/01 02:09:06;;;;;;;5.55;3.42;;;7.40;96.20;;;;;;5102540;28;20040;-48
2021/12/01 02:11:35;;;;;;;6.40;3.55;;;7.30;96.40;;;;;;5095476;28;20031;-49
2021/12/01 02:14:03;;;;;;;5.80;3.65;;;7.30;96.50;;;;;;5096470;28;20088;-49
2021/12/01 02:16:32;;;;;;;6.38;4.22;;;7.30;96.70;;;;;;5089829;28;20043;-53
2021/12/01 02:19:00;;;;;;;6.35;4.82;;;7.30;96.80;;;;;;5103952;28;20128;-49
2021/12/01 02:21:29;;;;;;;5.90;3.75;;;7.20;96.60;;;;;;5061036;28;20499;-55
2021/12/01 02:24:00;;;;;;;5.57;3.17;;;7.20;96.40;;;;;;5095038;28;20422;-48
2021/12/01 02:26:29;;;;;;;5.20;3.17;;;7.20;96.60;;;;;;5110910;27;20097;-49
2021/12/01 02:28:59;;;;;;;6.25;3.40;;;7.20;96.60;;;;;;5115038;28;20044;-51
2021/12/01 02:31:34;;;;;;;4.63;3.25;;;7.10;96.50;;;;;;5114526;28;20396;-49
2021/12/01 02:34:11;;;;;;;5.18;4.10;;;7.10;96.70;;;;;;5115406;28;20032;-49
2021/12/01 02:36:38;;;;;;;;;;;7.00;96.70;;;;;;5097808;28;20140;-50
2021/12/01 02:39:09;;;;;;;6.53;4.43;;;6.80;96.80;;;;;;5113827;28;20293;-49
2021/12/01 02:41:37;;;;;;;7.03;4.28;;;6.80;97.10;;;;;;5113979;28;20127;-51
2021/12/01 02:44:07;;;;;;;5.80;3.47;;;6.80;97.30;;;;;;5092292;28;20052;-50
2021/12/01 02:46:35;;;;;;;5.13;3.75;;;6.80;97.50;;;;;;5111584;28;20071;-50
2021/12/01 02:49:04;;;;;;;7.38;4.28;;;6.80;97.50;;;;;;5113923;28;20063;-51
2021/12/01 02:51:34;;;;;;;7.75;4.50;;;6.90;97.50;;;;;;5113813;28;20064;-53
2021/12/01 02:54:02;;;;;;;5.22;3.55;;;6.80;97.50;;;;;;5097025;28;20036;-48
2021/12/01 02:56:32;;;;;;;6.45;4.45;;;6.80;97.50;;;;;;5097247;28;20481;-53
2021/12/01 02:59:02;;;;;;;8.57;4.35;;;6.70;97.50;;;;;;5115153;28;20048;-48
2021/12/01 03:01:30;;;;;;;5.43;3.88;;;6.70;97.60;;;;;;5096871;28;20035;-50
2021/12/01 03:03:59;;;;;;;4.75;3.20;;;6.70;97.70;;;;;;5115215;28;20104;-49
2021/12/01 03:06:27;;;;;;;6.50;3.67;;;6.70;97.80;;;;;;5114895;28;20515;-51
2021/12/01 03:08:57;;;;;;;6.68;4.03;;;6.70;97.90;;;;;;5115174;28;20403;-50
2021/12/01 03:11:25;;;;;;;7.10;4.50;;;6.60;97.90;;;;;;5115385;28;20040;-49
2021/12/01 03:13:54;;;;;;;10.05;3.97;;;6.60;97.90;;;;;;5096903;28;20035;-49
2021/12/01 03:16:22;;;;;;;6.00;3.72;;;6.70;97.90;;;;;;5096632;28;20058;-50
2021/12/01 03:18:51;;;;;;;6.82;4.68;;;6.70;97.80;;;;;;5114660;28;20036;-52
2021/12/01 03:21:19;;;;;;;6.10;3.80;;;6.60;97.80;;;;;;5114719;28;20047;-49
2021/12/01 03:23:46;;;;;;;5.78;3.13;;;6.60;97.70;;;;;;5114465;28;20042;-49
2021/12/01 03:26:14;;;;;;;4.25;3.45;;;6.50;97.70;;;;;;5096608;28;20138;-49
2021/12/01 03:28:42;;;;;;;5.32;3.08;;;6.50;97.90;;;;;;5096690;28;20489;-49
2021/12/01 03:31:10;;;;;;;32.08;6.45;;;6.40;98.00;;;;;;5114416;28;20131;-48
2021/12/01 03:33:37;;;;;;;4.82;3.58;;;6.40;98.10;;;;;;5114465;28;20031;-51
2021/12/01 03:36:05;;;;;;;8.15;3.58;;;6.50;98.30;;;;;;5114355;28;20482;-50
2021/12/01 03:38:33;;;;;;;7.05;4.63;;;6.50;98.30;;;;;;5114280;28;20027;-49
2021/12/01 03:41:00;;;;;;;4.30;2.85;;;6.50;98.40;;;;;;5114431;28;20055;-53
2021/12/01 03:43:27;;;;;;;4.45;3.75;;;6.50;98.50;;;;;;5096089;28;20139;-49
2021/12/01 03:45:55;;;;;;;5.00;3.45;;;6.60;98.70;;;;;;5096654;28;20050;-48
2021/12/01 03:48:24;;;;;;;9.18;3.55;;;6.60;98.60;;;;;;5096144;28;20038;-51
2021/12/01 03:50:52;;;;;;;8.70;5.03;;;6.70;98.70;;;;;;5114470;28;20046;-52
2021/12/01 03:53:20;;;;;;;5.93;3.25;;;6.70;98.80;;;;;;5095861;28;20165;-48
2021/12/01 03:55:49;;;;;;;5.50;3.58;;;6.70;98.90;;;;;;5114293;28;20043;-50
2021/12/01 03:58:17;;;;;;;8.45;4.40;;;6.70;99.20;;;;;;5114035;28;20450;-48
2021/12/01 04:00:45;;;;;;;11.77;4.95;;;6.70;99.20;;;;;;5114015;28;20031;-51
2021/12/01 04:03:12;;;;;;;8.15;5.45;;;6.70;99.20;;;;;;5095997;28;20063;-49
2021/12/01 04:05:40;;;;;;;4.93;3.25;;;6.70;99.20;;;;;;5114025;28;20431;-50
2021/12/01 04:08:08;;;;;;;5.53;3.17;;;6.70;99.30;;;;;;5113981;28;20123;-49
2021/12/01 04:10:36;;;;;;;3.05;2.30;;;6.60;99.30;;;;;;5114112;28;20471;-51
2021/12/01 04:13:04;;;;;;;2.70;1.85;;;6.60;99.40;;;;;;5113841;28;20036;-51
2021/12/01 04:15:31;;;;;;;4.85;2.08;;;6.70;99.50;;;;;;5113890;28;20046;-48
2021/12/01 04:17:59;;;;;;;5.30;2.80;;;6.70;99.50;;;;;;5113816;28;20431;-49
2021/12/01 04:20:26;;;;;;;2.58;1.92;;;6.70;99.60;;;;;;5096189;28;20374;-48
2021/12/01 04:22:54;;;;;;;5.60;3.00;;;6.80;99.50;;;;;;5113964;28;20488;-50
2021/12/01 04:25:22;;;;;;;4.28;2.13;;;6.80;99.60;;;;;;5113906;28;20065;-53
2021/12/01 04:27:50;;;;;;;6.43;2.40;;;6.90;99.60;;;;;;5113851;28;20051;-51
2021/12/01 04:30:21;;;;;;;8.32;2.53;;;6.90;99.60;;;;;;5113756;28;20043;-52
2021/12/01 04:32:50;;;;;;;4.95;2.63;;;7.00;99.60;;;;;;5113872;28;20092;-53
2021/12/01 04:35:19;;;;;;;5.95;3.22;;;7.00;99.70;;;;;;5115414;28;20470;-49
2021/12/01 04:37:48;;;;;;;4.57;3.28;;;7.10;99.70;;;;;;5118041;28;20076;-49
2021/12/01 04:40:17;;;;;;;2.92;2.10;;;7.10;99.70;;;;;;5117688;28;20047;-51
2021/12/01 04:42:45;;;;;;;4.25;2.60;;;7.20;99.50;;;;;;5099613;28;20393;-53
2021/12/01 04:45:15;;;;;;;4.05;2.50;;;7.10;99.50;;;;;;5117697;28;20065;-48
2021/12/01 04:47:48;;;;;;;4.68;2.10;;;7.10;99.50;;;;;;5118253;28;20043;-51
2021/12/01 04:50:18;;;;;;;2.45;1.80;;;7.00;99.50;;;;;;5099665;28;20056;-50
2021/12/01 04:52:46;;;;;;;3.45;2.25;;;6.90;99.60;;;;;;5117573;28;20071;-50
2021/12/01 04:55:14;;;;;;;2.80;1.80;;;6.80;99.60;;;;;;5117573;28;20046;-49
2021/12/01 04:57:46;;;;;;;6.75;3.28;;;6.70;99.60;;;;;;5117440;28;20118;-50
2021/12/01 05:00:20;;;;;;;6.32;2.90;;;6.70;99.70;;;;;;5099480;28;20122;-53
2021/12/01 05:02:48;;;;;;;3.75;2.63;;;6.60;99.70;;;;;;5117462;28;20481;-49
2021/12/01 05:05:16;;;;;;;4.10;2.13;;;6.50;99.80;;;;;;5117307;28;20036;-49
2021/12/01 05:07:44;;;;;;;5.88;3.13;;;6.50;99.90;;;;;;5117308;28;20039;-49
2021/12/01 05:10:11;;;;;;;3.72;2.03;;;6.50;99.90;;;;;;5117011;28;20123;-49
2021/12/01 05:12:39;;;;;;;3.67;2.03;;;6.40;99.90;;;;;;5117266;28;20044;-49
2021/12/01 05:15:07;;;;;;;6.03;2.17;;;6.40;99.90;;;;;;5117424;28;20134;-51
2021/12/01 05:17:35;;;;;;;3.55;2.33;;;6.50;99.90;;;;;;5099318;28;20075;-49
2021/12/01 05:20:04;;;;;;;3.72;2.13;;;6.50;99.90;;;;;;5099141;28;20039;-48
2021/12/01 05:22:33;;;;;;;3.22;2.15;;;6.50;99.90;;;;;;5117064;28;20035;-50
2021/12/01 05:25:01;;;;;;;3.15;2.20;;;6.60;99.90;;;;;;5116900;28;20085;-50
2021/12/01 05:27:29;;;;;;;5.72;2.03;;;6.60;99.90;;;;;;5117319;28;20122;-51
2021/12/01 05:29:57;;;;;;;5.40;2.67;;;6.60;99.90;;;;;;5098748;28;20047;-51
2021/12/01 05:32:25;;;;;;;6.88;2.30;;;6.60;99.90;;;;;;5116685;28;20032;-49
2021/12/01 05:34:53;;;;;;;4.57;2.35;;;6.60;99.90;;;;;;5116745;28;20046;-50
2021/12/01 05:37:21;;;;;;;3.35;2.65;;;6.60;99.90;;;;;;5116476;28;20051;-49
2021/12/01 05:39:48;;;;;;;4.47;2.65;;;6.60;99.90;;;;;;5117196;28;20036;-49
2021/12/01 05:42:19;;;;;;;3.95;2.42;;;6.60;99.90;;;;;;5116601;28;20122;-49
2021/12/01 05:44:46;;;;;;;3.35;2.30;;;6.70;99.90;;;;;;5081501;28;20051;-48
2021/12/01 05:47:14;;;;;;;4.50;2.65;;;6.70;99.90;;;;;;5097170;28;20043;-53
2021/12/01 05:49:43;;;;;;;4.00;2.70;;;6.70;99.90;;;;;;5116519;28;20518;-50
2021/12/01 05:52:12;;;;;;;4.90;2.45;;;6.70;99.90;;;;;;5116465;28;20036;-49
2021/12/01 05:54:40;;;;;;;5.47;2.72;;;6.70;99.90;;;;;;5116432;28;20058;-53
2021/12/01 05:57:07;;;;;;;5.28;2.40;;;6.70;99.90;;;;;;5098218;28;20051;-54
2021/12/01 05:59:35;;;;;;;6.90;4.15;;;6.70;99.90;;;;;;5116212;28;20077;-52
2021/12/01 06:02:03;;;;;;;5.90;3.65;;;6.70;99.90;;;;;;5098395;28;20414;-49
2021/12/01 06:04:31;;;;;;;4.68;3.25;;;6.70;99.90;;;;;;5116226;28;20447;-50
2021/12/01 06:06:58;;;;;;;8.30;4.03;;;6.90;99.90;;;;;;5098055;28;20142;-52
2021/12/01 06:09:26;;;;;;;4.90;2.95;;;7.30;99.90;;;;;;5116087;28;20118;-48
2021/12/01 06:11:54;;;;;;;6.45;4.15;;;8.00;99.50;;;;;;5097780;28;20032;-49
2021/12/01 06:14:21;;;;;;;9.43;4.55;;;8.70;98.00;;;;;;5115813;28;20070;-50
2021/12/01 06:16:49;;;;;;;6.05;2.40;;;9.40;96.90;;;;;;5115953;28;20122;-49
2021/12/01 06:19:16;;;;;;;6.05;2.75;;;9.80;95.70;;;;;;5115908;28;20415;-50
2021/12/01 06:21:47;;;;;;;4.93;2.88;;;9.80;95.30;;;;;;5115859;28;20477;-49
2021/12/01 06:24:14;;;;;;;5.68;3.85;;;9.90;95.10;;;;;;5115866;28;20123;-50
2021/12/01 06:26:42;;;;;;;7.50;4.35;;;9.90;94.80;;;;;;5115905;28;20374;-53
2021/12/01 06:29:10;;;;;;;6.25;3.63;;;10.40;94.60;;;;;;5097585;28;20475;-49
2021/12/01 06:31:37;;;;;;;5.75;4.03;;;10.80;94.10;;;;;;5115620;28;20554;-48
2021/12/01 06:34:05;;;;;;;7.30;3.35;;;11.30;93.60;;;;;;5115519;28;20121;-49
2021/12/01 06:36:33;;;;;;;5.82;3.22;;;11.50;93.10;;;;;;5115567;28;20441;-50
2021/12/01 06:39:03;;;;;;;10.02;3.50;;;11.60;92.70;;;;;;5115685;28;20040;-49
2021/12/01 06:41:31;;;;;;;5.15;3.30;;;12.60;92.10;;;;;;5097448;28;20040;-51
2021/12/01 06:43:58;;;;;;;5.50;3.58;;;13.00;91.20;;;;;;5097303;28;20074;-50
2021/12/01 06:46:28;;;;;;;6.97;3.83;;;13.40;90.60;;;;;;5097379;28;20052;-51
2021/12/01 06:48:57;;;;;;;6.75;4.47;;;13.40;90.60;;;;;;5115327;28;20405;-52
2021/12/01 06:51:25;;;;;;;5.80;4.15;;;14.10;90.50;;;;;;5097339;28;20036;-50
2021/12/01 06:53:53;;;;;;;11.93;7.80;;;14.80;89.60;;;;;;5115423;28;20038;-50
2021/12/01 06:56:21;;;;;;;5.47;3.60;;;15.60;87.80;;;;;;5115129;28;20122;-48
2021/12/01 06:58:49;;;;;;;10.20;6.03;;;16.30;86.00;;;;;;5096756;28;20066;-50
2021/12/01 07:01:17;;;;;;;4.95;3.58;;;16.80;84.90;;;;;;5115115;28;20048;-50
2021/12/01 07:03:44;;;;;;;5.10;3.17;;;17.40;83.20;;;;;;5096926;28;20504;-51
2021/12/01 07:06:12;;;;;;;3.88;3.45;;;18.00;82.50;;;;;;5114871;28;20378;-51
2021/12/01 07:08:40;;;;;;;5.57;4.40;;;18.40;81.70;;;;;;5100052;28;20042;-53
2021/12/01 07:11:08;;;;;;;12.50;6.28;;;18.80;81.10;;;;;;5084778;28;20430;-54
2021/12/01 07:13:36;;;;;;;9.85;3.30;;;19.00;79.90;;;;;;5080536;28;20555;-52
2021/12/01 07:16:03;;;;;;;6.90;2.88;;;19.30;78.60;;;;;;5081335;28;20036;-53
2021/12/01 07:18:31;;;;;;;6.68;3.78;;;19.60;77.70;;;;;;5072039;28;20066;-50
2021/12/01 07:20:59;;;;;;;7.88;3.80;;;19.50;77.20;;;;;;5083375;28;20031;-50
2021/12/01 07:23:26;;;;;;;13.18;3.63;;;19.20;77.10;;;;;;5099634;28;20449;-50
2021/12/01 07:25:59;;;;;;;6.47;4.32;;;18.60;78.40;;;;;;5082067;28;20040;-53
2021/12/01 07:28:26;;;;;;;5.75;3.22;;;18.30;79.60;;;;;;5091249;28;20044;-52
2021/12/01 07:30:54;;;;;;;5.60;2.42;;;18.20;80.00;;;;;;5070999;28;20040;-54
2021/12/01 07:33:23;;;;;;;4.05;2.17;;;18.10;80.90;;;;;;5097039;28;20040;-52
2021/12/01 07:35:51;;;;;;;4.65;2.33;;;17.70;81.90;;;;;;5096368;28;20041;-50
2021/12/01 07:38:19;;;;;;;5.18;2.67;;;17.70;82.00;;;;;;5100390;28;20036;-53
2021/12/01 07:40:47;;;;;;;4.28;3.17;;;17.60;81.80;;;;;;5094803;28;20100;-49
2021/12/01 07:43:14;;;;;;;7.20;3.60;;;17.50;82.50;;;;;;5092490;28;20083;-50
2021/12/01 07:45:44;;;;;;;4.40;2.70;;;16.90;82.50;;;;;;5114275;28;20445;-49
2021/12/01 07:48:12;;;;;;;5.90;3.83;;;16.50;83.80;;;;;;5096707;28;20040;-50
2021/12/01 07:50:40;;;;;;;8.00;5.43;;;16.20;85.10;;;;;;5114295;28;20119;-49
2021/12/01 07:53:09;;;;;;;8.73;5.45;;;16.20;86.40;;;;;;5114105;28;20035;-50
2021/12/01 07:55:37;;;;;;;7.07;4.03;;;16.30;86.20;;;;;;5114249;28;20043;-49
2021/12/01 07:58:04;;;;;;;4.60;2.60;;;16.00;84.80;;;;;;5114352;28;20035;-51
2021/12/01 08:00:32;;;;;;;4.85;3.28;;;15.90;86.10;;;;;;5114212;28;20118;-50
2021/12/01 08:02:59;;;;;;;7.30;4.35;;;16.10;86.60;;;;;;5114220;28;20035;-49
2021/12/01 08:05:27;;;;;;;17.02;10.48;;;16.40;86.30;;;;;;5114119;28;20039;-49
2021/12/01 08:07:55;;;;;;;20.75;13.98;;;16.70;85.30;;;;;;5114081;28;20035;-51
2021/12/01 08:10:23;;;;;;;21.42;16.13;;;16.90;85.10;;;;;;5113266;28;20538;-49
2021/12/01 08:12:51;;;;;;;18.95;13.95;;;17.10;84.80;;;;;;5114408;28;20039;-50
2021/12/01 08:15:21;;;;;;;12.32;8.85;;;17.20;84.70;;;;;;5114142;28;20389;-49
2021/12/01 08:17:49;;;;;;;8.23;4.78;;;17.00;84.70;;;;;;5114619;28;20031;-55
2021/12/01 08:20:16;;;;;;;4.70;3.20;;;16.70;85.30;;;;;;5095711;28;20031;-53
2021/12/01 08:22:44;;;;;;;4.65;2.15;;;16.30;86.70;;;;;;5113950;28;20036;-54
2021/12/01 08:25:12;;;;;;;6.68;3.00;;;15.90;87.30;;;;;;5113825;28;20037;-52
2021/12/01 08:27:40;;;;;;;5.25;2.80;;;15.70;88.10;;;;;;5096133;28;20039;-54
2021/12/01 08:30:08;;;;;;;5.50;2.95;;;15.70;88.90;;;;;;5113912;28;20381;-49
2021/12/01 08:32:36;;;;;;;3.30;2.47;;;15.50;89.10;;;;;;5113959;28;20412;-52
2021/12/01 08:35:04;;;;;;;2.70;1.70;;;15.30;89.40;;;;;;5095697;28;20043;-50
2021/12/01 08:37:31;;;;;;;3.38;1.83;;;15.20;90.10;;;;;;5113769;28;20050;-49
2021/12/01 08:39:59;;;;;;;3.28;2.03;;;15.10;90.50;;;;;;5113943;28;20085;-50
2021/12/01 08:42:27;;;;;;;3.50;1.88;;;15.10;90.70;;;;;;5113436;28;20143;-51
2021/12/01 08:44:54;;;;;;;6.88;1.92;;;15.10;90.60;;;;;;5114142;28;20035;-50
2021/12/01 08:47:26;;;;;;;5.05;2.30;;;15.20;90.30;;;;;;5113909;28;20080;-49
2021/12/01 08:49:53;;;;;;;2.60;2.33;;;15.20;90.10;;;;;;5113904;28;20039;-49
2021/12/01 08:52:23;;;;;;;4.00;1.80;;;15.20;90.40;;;;;;5113588;28;20122;-51
2021/12/01 08:54:51;;;;;;;3.15;1.88;;;15.30;90.30;;;;;;5113530;28;20035;-49
2021/12/01 08:57:19;;;;;;;2.08;1.30;;;15.20;90.40;;;;;;5113561;28;20039;-49
2021/12/01 08:59:48;;;;;;;4.50;2.35;;;15.40;90.50;;;;;;5113730;28;20032;-50
2021/12/01 09:02:15;;;;;;;3.40;2.10;;;15.50;90.80;;;;;;5095639;28;20047;-50
2021/12/01 09:04:44;;;;;;;2.63;1.58;;;15.30;90.50;;;;;;5113600;28;20039;-49
2021/12/01 09:07:12;;;;;;;3.97;1.77;;;15.20;90.50;;;;;;5113409;28;20424;-49
2021/12/01 09:09:39;;;;;;;1.92;1.40;;;15.20;90.90;;;;;;5113640;28;20027;-50
2021/12/01 09:12:11;;;;;;;9.68;1.70;;;15.30;90.70;;;;;;5093428;28;20508;-52
2021/12/01 09:14:39;;;;;;;2.42;1.40;;;15.50;90.90;;;;;;5106902;28;20039;-53
2021/12/01 09:17:09;;;;;;;2.75;1.45;;;15.60;91.20;;;;;;5077758;28;20047;-54
2021/12/01 09:19:40;;;;;;;5.32;2.25;;;15.70;91.20;;;;;;5104749;28;20126;-53
2021/12/01 09:22:08;;;;;;;2.55;1.70;;;15.80;91.30;;;;;;5116130;28;20478;-55
2021/12/01 09:24:40;;;;;;;7.55;1.92;;;15.80;91.40;;;;;;5117348;28;20117;-55
2021/12/01 09:27:08;;;;;;;3.03;1.90;;;15.90;91.50;;;;;;5101402;28;20043;-54
2021/12/01 09:29:37;;;;;;;3.30;1.67;;;15.90;91.20;;;;;;5104836;28;20039;-54
2021/12/01 09:32:05;;;;;;;3.90;1.70;;;16.00;91.30;;;;;;5085894;28;20047;-49
2021/12/01 09:34:32;;;;;;;4.15;1.85;;;15.90;90.80;;;;;;5106355;28;20086;-53
2021/12/01 09:37:01;;;;;;;2.20;1.42;;;15.80;91.40;;;;;;5096807;28;20028;-54
2021/12/01 09:39:29;;;;;;;3.72;1.40;;;15.90;91.50;;;;;;5106865;28;20038;-54
2021/12/01 09:41:58;;;;;;;3.80;1.65;;;15.90;91.10;;;;;;5109236;28;20060;-52
2021/12/01 09:44:26;;;;;;;2.85;1.15;;;15.90;91.40;;;;;;5103664;28;20465;-52
2021/12/01 09:46:53;;;;;;;2.20;1.30;;;16.00;91.10;;;;;;5103283;28;20046;-51
2021/12/01 09:49:21;;;;;;;1.55;1.20;;;16.10;90.70;;;;;;5080695;28;20082;-50
2021/12/01 09:51:48;;;;;;;1.90;1.27;;;16.10;90.60;;;;;;5096285;28;20408;-53
2021/12/01 09:54:16;;;;;;;2.78;1.67;;;16.10;90.50;;;;;;5105981;28;20080;-49
2021/12/01 09:56:43;;;;;;;14.57;8.00;;;15.90;89.00;;;;;;5097676;28;20471;-52
2021/12/01 09:59:11;;;;;;;11.35;6.68;;;15.90;89.50;;;;;;5100748;28;20119;-50
2021/12/01 10:01:39;;;;;;;3.42;2.20;;;15.90;90.00;;;;;;5105612;28;20028;-51
2021/12/01 10:04:07;;;;;;;21.67;10.95;;;16.00;90.20;;;;;;5086576;28;20040;-49
2021/12/01 10:06:35;;;;;;;39.03;19.27;;;16.00;89.00;;;;;;5095808;28;20466;-49
2021/12/01 10:09:07;;;;;;;20.40;12.10;;;15.90;89.80;;;;;;5095967;28;20428;-49
2021/12/01 10:11:37;;;;;;;17.42;11.88;;;15.90;89.60;;;;;;5095745;28;20131;-52
2021/12/01 10:14:15;;;;;;;15.38;9.27;;;16.00;88.90;;;;;;5061118;28;20460;-50
2021/12/01 10:16:43;;;;;;;6.97;3.80;;;16.10;89.80;;;;;;5096191;28;20044;-50
2021/12/01 10:19:14;;;;;;;3.40;1.85;;;16.20;89.90;;;;;;5095788;28;20036;-51
2021/12/01 10:21:46;;;;;;;2.83;1.40;;;16.30;90.00;;;;;;5078164;28;20036;-53
2021/12/01 10:24:24;;;;;;;10.75;5.75;;;16.30;89.70;;;;;;5095650;28;20040;-50
2021/12/01 10:27:00;;;;;;;12.20;5.63;;;16.30;87.70;;;;;;5087144;28;20042;-50
2021/12/01 10:29:33;;;;;;;;;;;16.30;89.50;;;;;;5097195;28;20081;-50
2021/12/01 10:32:07;;;;;;;3.60;1.70;;;16.20;87.80;;;;;;5105097;28;19954;-50
2021/12/01 10:34:38;;;;;;;2.58;1.52;;;16.20;86.90;;;;;;5091343;28;20040;-50
2021/12/01 10:37:12;;;;;;;6.85;1.77;;;16.10;86.90;;;;;;5107408;28;20032;-55
2021/12/01 10:39:43;;;;;;;3.42;1.90;;;16.00;86.40;;;;;;5107449;28;20043;-54
2021/12/01 10:42:15;;;;;;;2.10;1.30;;;16.10;86.50;;;;;;5095001;28;20059;-54
2021/12/01 10:45:03;;;;;;;3.85;2.20;;;16.10;86.30;;;;;;5102259;28;20058;-54
2021/12/01 10:47:42;;;;;;;3.58;1.65;;;16.10;86.10;;;;;;5098773;28;20040;-53
2021/12/01 10:50:18;;;;;;;7.78;4.38;;;15.80;83.10;;;;;;5095297;28;20044;-55
2021/12/01 10:52:52;;;;;;;20.27;12.48;;;15.80;84.50;;;;;;5077138;28;20048;-50
2021/12/01 10:55:22;;;;;;;13.48;9.40;;;15.80;85.90;;;;;;5095068;28;20117;-52
2021/12/01 10:58:05;;;;;;;7.57;4.15;;;15.80;86.80;;;;;;5094913;28;20090;-52
2021/12/01 11:00:43;;;;;;;3.63;1.90;;;15.90;87.40;;;;;;5076916;28;20348;-54
2021/12/01 11:03:12;;;;;;;4.50;2.08;;;15.90;86.40;;;;;;5076765;28;20047;-50
2021/12/01 11:05:43;;;;;;;9.90;4.40;;;15.90;87.10;;;;;;5097215;28;20036;-50
2021/12/01 11:08:15;;;;;;;5.40;2.90;;;15.80;85.20;;;;;;5102151;28;20107;-51
2021/12/01 11:10:45;;;;;;;4.72;1.85;;;15.60;85.70;;;;;;5114187;28;20370;-51
2021/12/01 11:13:14;;;;;;;1.90;1.38;;;15.60;85.20;;;;;;5094747;28;20032;-50
2021/12/01 11:15:44;;;;;;;4.10;1.30;;;15.60;85.20;;;;;;5094644;28;20474;-53
2021/12/01 11:18:24;;;;;;;2.08;1.42;;;15.70;86.40;;;;;;5108716;28;20036;-58
2021/12/01 11:21:09;;;;;;;1.98;1.48;;;15.70;86.60;;;;;;5088816;28;20373;-58
2021/12/01 11:23:48;;;;;;;3.33;1.88;;;15.60;85.80;;;;;;5110815;28;20035;-58
2021/12/01 11:26:19;;;;;;;3.45;1.80;;;15.40;85.30;;;;;;5109128;28;20038;-58
2021/12/01 11:28:55;;;;;;;3.15;1.83;;;15.30;86.50;;;;;;5094787;28;20063;-58
2021/12/01 11:31:27;;;;;;;3.63;2.10;;;15.20;88.10;;;;;;5106590;28;20072;-58
2021/12/01 11:33:58;;;;;;;4.55;2.13;;;15.10;88.20;;;;;;5112991;28;20381;-57
2021/12/01 11:36:31;;;;;;;2.95;1.70;;;15.10;88.40;;;;;;5076511;28;20031;-57
2021/12/01 11:39:03;;;;;;;6.65;2.28;;;15.20;88.80;;;;;;5109945;28;20152;-58
2021/12/01 11:41:36;;;;;;;5.43;3.47;;;15.20;89.20;;;;;;5109018;28;20541;-58
2021/12/01 11:44:04;;;;;;;7.75;4.95;;;15.30;89.60;;;;;;5108462;28;20043;-58
2021/12/01 11:46:33;;;;;;;6.50;2.83;;;15.30;89.80;;;;;;5090523;28;20048;-58
2021/12/01 11:49:06;;;;;;;8.07;4.13;;;15.40;89.40;;;;;;5112907;28;20027;-58
2021/12/01 11:51:45;;;;;;;10.88;6.80;;;15.30;89.50;;;;;;5112946;28;20100;-58
2021/12/01 11:54:19;;;;;;;9.00;4.88;;;15.30;89.30;;;;;;5112088;28;20469;-58
2021/12/01 11:56:55;;;;;;;5.07;3.10;;;15.30;90.20;;;;;;5104189;28;20475;-58
2021/12/01 11:59:27;;;;;;;7.57;3.30;;;15.40;90.20;;;;;;5100711;28;20039;-58
2021/12/01 12:02:02;;;;;;;11.88;8.77;;;15.40;89.60;;;;;;5076147;28;20335;-56
2021/12/01 12:04:37;;;;;;;3.80;2.43;;;15.40;89.60;;;;;;5107639;28;20377;-58
2021/12/01 12:07:16;;;;;;;4.80;2.15;;;15.40;89.70;;;;;;5114294;28;20303;-58
2021/12/01 12:10:19;;;;;;;4.75;3.60;;;15.30;90.10;;;;;;5114092;28;20043;-58
2021/12/01 12:13:00;;;;;;;4.05;1.85;;;15.30;90.50;;;;;;5097282;28;20040;-58
2021/12/01 12:15:31;;;;;;;3.42;2.22;;;15.40;90.10;;;;;;5100233;28;20393;-58
2021/12/01 12:17:59;;;;;;;4.32;2.00;;;15.20;90.60;;;;;;5102367;28;20036;-62
2021/12/01 12:20:30;;;;;;;5.45;1.95;;;15.00;90.70;;;;;;5095976;28;20067;-62
2021/12/01 12:23:01;;;;;;;5.38;2.30;;;14.60;90.90;;;;;;5079367;28;20096;-62
2021/12/01 12:25:35;;;;;;;3.58;1.95;;;14.40;91.40;;;;;;5112064;28;20381;-62
2021/12/01 12:28:33;;;;;;;4.07;2.67;;;14.30;92.20;;;;;;5081255;28;20051;-62
2021/12/01 12:31:18;;;;;;;5.75;2.55;;;14.40;93.00;;;;;;5077050;28;20047;-62
2021/12/01 12:34:04;;;;;;;3.35;2.08;;;14.60;93.10;;;;;;5079179;28;20044;-62
2021/12/01 12:36:41;;;;;;;2.90;1.67;;;14.80;92.70;;;;;;5093510;28;20478;-62
2021/12/01 12:39:10;;;;;;;4.13;2.42;;;14.80;92.60;;;;;;5094854;28;20089;-63
2021/12/01 12:42:04;;;;;;;3.15;1.80;;;14.90;92.90;;;;;;5079280;28;20040;-62
2021/12/01 12:44:37;;;;;;;2.97;1.60;;;14.90;92.70;;;;;;5095897;28;20075;-62
2021/12/01 12:47:35;;;;;;;6.22;2.58;;;14.80;92.80;;;;;;5112535;28;20077;-63
2021/12/01 12:50:14;;;;;;;7.47;2.60;;;14.80;92.40;;;;;;5075629;28;20040;-62
2021/12/01 12:52:47;;;;;;;3.50;2.22;;;14.80;92.40;;;;;;5068638;28;20072;-63
2021/12/01 12:55:21;;;;;;;3.38;2.50;;;14.80;92.70;;;;;;5093693;28;20047;-63
2021/12/01 12:57:56;;;;;;;3.35;1.80;;;14.80;92.80;;;;;;5107698;28;20039;-62
2021/12/01 13:00:56;;;;;;;3.38;2.35;;;14.80;91.80;;;;;;5082991;28;20050;-62
2021/12/01 13:03:24;;;;;;;5.05;2.38;;;14.80;92.50;;;;;;5079144;28;20114;-62
2021/12/01 13:06:02;;;;;;;7.32;2.70;;;14.80;93.60;;;;;;5062376;28;20050;-62
2021/12/01 13:08:39;;;;;;;4.95;3.00;;;14.80;93.20;;;;;;5079282;28;20047;-62
2021/12/01 13:11:09;;;;;;;3.78;1.95;;;14.80;92.90;;;;;;5079150;28;20050;-63
2021/12/01 13:13:40;;;;;;;5.05;1.90;;;14.80;92.80;;;;;;5078669;28;20542;-62